Data for 08/05/2013

Time Sea-Level Adjusted Pressure Absolute Pressure Temperature Relative Humidity Dew Point   
(mb) (inHg) (mb) (inHg) (C) (F) (%) (C) (F)
00:05 1021 30.15 850 25.1 18.8 65.9 50 8.4 47.1
00:10 1021 30.15 850 25.1 18.7 65.7 51 8.4 47.1
00:15 1021 30.15 850 25.1 18.7 65.7 51 8.4 47.1
00:20 1021 30.15 850 25.1 18.6 65.5 51 8.5 47.2
00:25 1021 30.15 850 25.1 18.5 65.3 52 8.5 47.2
00:30 1021 30.15 850 25.1 18.3 65 53 8.6 47.4
00:35 1021 30.15 850 25.1 18.2 64.7 53 8.6 47.5
00:40 1021 30.15 850 25.1 18.1 64.5 54 8.6 47.6
00:45 1021 30.15 850 25.1 17.8 64.1 54 8.6 47.4
00:50 1021 30.15 850 25.1 17.7 63.9 55 8.7 47.7
00:55 1021 30.15 850 25.1 17.4 63.4 56 8.7 47.7
01:00 1021 30.15 850 25.1 17.2 63 57 8.8 47.8
01:05 1021 30.15 850 25.1 17 62.6 58 8.8 47.8
01:10 1021 30.15 850 25.1 16.8 62.2 59 8.8 47.8
01:15 1021 30.15 850 25.1 16.6 61.9 59 8.7 47.6
01:20 1021 30.15 850 25.1 16.5 61.7 60 8.7 47.7
01:25 1021 30.15 850 25.1 16.5 61.6 60 8.7 47.7
01:30 1021 30.15 850 25.1 16.4 61.5 60 8.7 47.6
01:35 1021 30.15 850 25.1 16.3 61.3 60 8.7 47.6
01:40 1021 30.15 850 25.1 16.3 61.3 60 8.7 47.6
01:45 1021 30.15 850 25.1 16.3 61.4 60 8.8 47.8
01:50 1021 30.15 850 25.1 16.4 61.4 61 8.8 47.9
01:55 1021 30.15 850 25.1 16.2 61.2 62 9 48.1
02:00 1021 30.15 850 25.1 16.2 61.2 63 9.2 48.6
02:05 1021 30.15 850 25.1 16 60.8 64 9.3 48.7
02:10 1021 30.15 850 25.1 15.9 60.6 65 9.4 48.8
02:15 1021 30.15 850 25.1 16 60.7 65 9.4 48.8
02:20 1021 30.15 850 25.1 15.9 60.6 65 9.4 49
02:25 1021 30.15 850 25.1 15.7 60.2 66 9.4 48.9
02:30 1021 30.15 850 25.1 15.6 60.1 66 9.4 48.9
02:35 1021 30.15 850 25.1 15.8 60.4 66 9.5 49.1
02:40 1021 30.15 850 25.1 15.8 60.5 66 9.6 49.3
02:45 1021 30.15 850 25.1 16 60.7 66 9.7 49.4
02:50 1021 30.15 850 25.1 16.1 61.1 65 9.7 49.5
02:55 1021 30.15 850 25.1 16.3 61.3 65 9.8 49.6
03:00 1021 30.15 850 25.1 16.5 61.7 65 9.9 49.8
03:05 1021 30.15 850 25.1 16.5 61.7 65 9.9 49.9
03:10 1021 30.15 850 25.1 16.5 61.7 65 10 50.1
03:15 1021 30.15 850 25.1 16.4 61.6 66 10.1 50.1
03:20 1021 30.15 850 25.1 16.4 61.4 66 10.1 50.2
03:25 1021 30.15 850 25.1 16.3 61.3 66 10.1 50.2
03:30 1021 30.15 850 25.1 16.2 61.1 67 10.1 50.2
03:35 1021 30.15 850 25.1 15.4 59.8 69 9.8 49.6
03:40 1021 30.15 850 25.1 14.4 58 72 9.5 49.2
03:45 1021 30.15 850 25.1 14.3 57.7 72 9.4 48.9
03:50 1021 30.15 850 25.1 14.4 57.9 71 9.2 48.6
03:55 1021 30.15 850 25.1 14.3 57.7 73 9.5 49
04:00 1021 30.15 850 25.1 14 57.2 72 9.1 48.4
04:05 1021 30.15 850 25.1 14.1 57.3 71 8.9 48.1
04:10 1021 30.15 850 25.1 14 57.2 71 8.8 47.9
04:15 1021 30.15 850 25.1 13.9 57 71 8.8 47.9
04:20 1021 30.15 850 25.1 13.8 56.9 70 8.5 47.3
04:25 1021 30.15 850 25.1 13.8 56.8 69 8.3 47
04:30 1021 30.15 850 25.1 13.7 56.7 70 8.5 47.2
04:35 1021 30.15 850 25.1 13.9 56.9 69 8.4 47.1
04:40 1021 30.15 850 25.1 13.8 56.9 70 8.5 47.4
04:45 1021 30.15 850 25.1 13.8 56.9 71 8.7 47.7
04:50 1021 30.15 850 25.1 13.6 56.5 73 8.8 47.9
04:55 1021 30.15 850 25.1 13.7 56.6 73 9 48.2
05:00 1021 30.15 850 25.1 13.5 56.3 75 9.1 48.4
05:05 1021 30.15 850 25.1 13.5 56.3 74 8.9 48.1
05:10 1021 30.15 850 25.1 13.6 56.4 72 8.6 47.5
05:15 1021 30.15 850 25.1 13.7 56.6 73 9 48.2
05:20 1021 30.15 850 25.1 13.5 56.4 74 8.9 48.1
05:25 1021 30.15 850 25.1 13.3 56 75 9 48.3
05:30 1021 30.15 850 25.1 13.5 56.3 74 9 48.2
05:35 1021 30.15 850 25.1 13.7 56.6 74 9.3 48.7
05:40 1021 30.15 850 25.1 13.9 57 74 9.4 49
05:45 1021 30.15 850 25.1 14 57.2 74 9.5 49
05:50 1021 30.15 850 25.1 14.2 57.5 74 9.6 49.3
05:55 1021 30.15 850 25.1 14.4 58 73 9.7 49.4
06:00 1021 30.15 850 25.1 14.5 58.1 73 9.8 49.6
06:05 1021 30.15 850 25.1 14.7 58.4 72 9.8 49.6
06:10 1021 30.15 850 25.1 14.9 58.9 72 9.9 49.8
06:15 1021 30.15 850 25.1 15.2 59.3 70 9.9 49.8
06:20 1021 30.15 850 25.1 15.4 59.6 70 10 49.9
06:25 1021 30.15 850 25.1 15.5 60 69 9.9 49.8
06:30 1021 30.15 850 25.1 15.7 60.2 68 9.9 49.9
06:35 1021 30.15 850 25.1 15.9 60.7 66 9.7 49.5
06:40 1021 30.15 850 25.1 16.1 61 67 10 50
06:45 1021 30.15 850 25.1 16.1 61 66 9.9 49.8
06:50 1021 30.15 850 25.1 16.3 61.4 65 9.9 49.8
06:55 1021 30.15 850 25.1 16.5 61.6 65 10 49.9
07:00 1021 30.15 850 25.1 16.6 61.9 64 9.9 49.7
07:05 1021 30.15 850 25.1 17 62.6 61 9.6 49.2
07:10 1021 30.15 850 25.1 17 62.6 60 9.3 48.7
07:15 1021 30.15 850 25.1 17.5 63.6 59 9.6 49.2
07:20 1021 30.15 850 25.1 17.9 64.1 58 9.5 49.1
07:25 1021 30.15 850 25.1 17.9 64.3 58 9.6 49.3
07:30 1021 30.15 850 25.1 18.3 64.9 58 9.9 49.9
07:35 1021 30.15 850 25.1 18.7 65.6 54 9.3 48.7
07:40 1021 30.15 850 25.1 19 66.2 53 9.3 48.8
07:45 1021 30.15 850 25.1 18.8 65.9 51 8.7 47.6
07:50 1021 30.15 850 25.1 18.9 66.1 52 8.9 48.1
07:55 1021 30.15 850 25.1 19.5 67.1 49 8.6 47.4
08:00 1021 30.15 850 25.1 19.4 66.9 49 8.6 47.4
08:05 1020 30.12 850 25.1 19.7 67.5 48 8.5 47.4
08:10 1020 30.12 850 25.1 20.4 68.8 48 9.1 48.4
08:15 1020 30.12 850 25.1 20.7 69.2 45 8.6 47.5
08:20 1020 30.12 850 25.1 20.9 69.6 45 8.6 47.5
08:25 1020 30.12 850 25.1 21.1 70.1 44 8.7 47.6
08:30 1020 30.12 850 25.1 21.8 71.2 42 8.4 47.2
08:35 1020 30.12 849 25.07 22.2 72 41 8.6 47.4
08:40 1020 30.12 849 25.07 22.5 72.4 45 10 49.9
08:45 1020 30.12 849 25.07 22.5 72.4 40 8.5 47.3
08:50 1020 30.12 849 25.07 22.4 72.2 37 7.3 45.1
08:55 1020 30.12 849 25.07 22.4 72.3 34 6 42.8
09:00 1020 30.12 849 25.07 23 73.4 34 6.4 43.6
09:05 1020 30.12 849 25.07 23.9 74.9 34 7.2 44.9
09:10 1020 30.12 849 25.07 24.1 75.4 33 7 44.6
09:15 1020 30.12 849 25.07 24.2 75.6 31 6.3 43.4
09:20 1020 30.12 849 25.07 24.3 75.7 34 7.4 45.4
09:25 1020 30.12 849 25.07 24.3 75.7 29 5.4 41.7
09:30 1020 30.12 849 25.07 24.6 76.3 30 6.2 43.2
09:35 1020 30.12 849 25.07 25.3 77.5 29 6.1 43
09:40 1020 30.12 849 25.07 26.1 78.9 29 7 44.6
09:45 1020 30.12 849 25.07 26.5 79.8 25 4.9 40.9
09:50 1020 30.12 849 25.07 27 80.6 24 5.3 41.5
09:55 1020 30.12 849 25.07 26.9 80.5 28 7.4 45.3
10:00 1020 30.12 849 25.07 25.5 77.8 32 7.7 45.8
10:05 1020 30.12 849 25.07 25.2 77.3 30 6.6 43.8
10:10 1020 30.12 849 25.07 25.7 78.3 30 6.9 44.4
10:15 1020 30.12 849 25.07 25.1 77.3 30 6.6 43.9
10:20 1020 30.12 849 25.07 26 78.9 29 7 44.6
10:25 1020 30.12 849 25.07 25.4 77.6 31 7.4 45.3
10:30 1019 30.09 849 25.07 25.6 78 31 7.7 45.8
10:35 1019 30.09 849 25.07 25.8 78.4 32 7.9 46.3
10:40 1019 30.09 849 25.07 25.8 78.4 30 7.3 45.1
10:45 1019 30.09 849 25.07 26.5 79.6 28 6.8 44.2
10:50 1019 30.09 848 25.04 27 80.6 28 7.3 45.2
10:55 1019 30.09 848 25.04 26.9 80.3 29 7.4 45.4
11:00 1019 30.09 848 25.04 27 80.5 27 6.4 43.6
11:05 1019 30.09 848 25.04 26.7 80.1 26 6.2 43.1
11:10 1019 30.09 848 25.04 26.9 80.3 26 6.1 43
11:15 1019 30.09 848 25.04 27.6 81.7 24 5.7 42.2
11:20 1019 30.09 848 25.04 28 82.3 24 5.6 42
11:25 1019 30.09 848 25.04 27.9 82.3 23 5 41
11:30 1019 30.09 848 25.04 28.2 82.8 24 5.9 42.6
11:35 1019 30.09 848 25.04 26.9 80.4 26 6.2 43.2
11:40 1019 30.09 848 25.04 26.9 80.3 23 4.4 39.9
11:45 1019 30.09 848 25.04 28 82.3 23 4.9 40.9
11:50 1019 30.09 848 25.04 28.7 83.6 20 4 39.3
11:55 1019 30.09 848 25.04 28.7 83.7 21 4.3 39.7
12:00 1019 30.09 848 25.04 28.4 83.1 19 2.5 36.6
12:05 1019 30.09 848 25.04 27.9 82.2 19 2.5 36.6
12:10 1019 30.09 848 25.04 28.3 82.9 18 1.8 35.3
12:15 1019 30.09 848 25.04 28.1 82.7 17 1.2 34.1
12:20 1019 30.09 848 25.04 28.2 82.8 18 1.7 35
12:25 1018 30.06 848 25.04 28.2 82.8 15 -0.5 31.1
12:30 1018 30.06 848 25.04 29 84.3 15 -0.2 31.7
12:35 1018 30.06 848 25.04 28.8 83.8 18 2.3 36.1
12:40 1018 30.06 847 25.01 28.2 82.7 15 -0.2 31.7
12:45 1018 30.06 847 25.01 28 82.5 17 0.7 33.2
12:50 1018 30.06 847 25.01 28.6 83.5 17 1.5 34.8
12:55 1018 30.06 847 25.01 28.9 83.9 17 2.1 35.8
13:00 1018 30.06 847 25.01 28.1 82.7 17 1.2 34.2
13:05 1018 30.06 847 25.01 28.2 82.8 17 1.2 34.2
13:10 1018 30.06 847 25.01 28.5 83.4 19 2.9 37.3
13:15 1018 30.06 847 25.01 27.8 82.1 16 -0 31.9
13:20 1018 30.06 847 25.01 28 82.5 17 1.1 33.9
13:25 1018 30.06 847 25.01 28.7 83.7 16 0.8 33.4
13:30 1018 30.06 847 25.01 28.2 82.8 18 1.9 35.4
13:35 1018 30.06 847 25.01 27.6 81.7 18 1.7 35.1
13:40 1018 30.06 847 25.01 27.6 81.7 17 0.8 33.4
13:45 1018 30.06 847 25.01 27.6 81.6 18 1.3 34.4
13:50 1018 30.06 847 25.01 26.8 80.2 18 0.5 32.8
13:55 1017 30.03 847 25.01 27.3 81.1 17 0.5 32.9
14:00 1017 30.03 847 25.01 28.1 82.6 15 -0.2 31.7
14:05 1017 30.03 847 25.01 28.6 83.4 16 0.7 33.2
14:10 1017 30.03 846 24.98 28.3 82.9 17 1.4 34.5
14:15 1017 30.03 846 24.98 28.8 83.8 17 1.6 34.9
14:20 1017 30.03 846 24.98 29.6 85.3 16 1.5 34.7
14:25 1017 30.03 846 24.98 29.7 85.4 15 0.4 32.8
14:30 1017 30.03 847 25.01 29.3 84.7 15 0.4 32.7
14:35 1017 30.03 846 24.98 29.5 85.2 15 0.3 32.6
14:40 1017 30.03 846 24.98 29.2 84.5 16 0.8 33.5
14:45 1017 30.03 846 24.98 28.3 82.9 16 0.6 33.1
14:50 1017 30.03 846 24.98 28.2 82.8 15 -0.6 31
14:55 1017 30.03 846 24.98 28.5 83.4 15 -0.2 31.7
15:00 1017 30.03 846 24.98 29 84.2 15 -0 32
15:05 1017 30.03 846 24.98 29.4 84.9 14 -0.3 31.4
15:10 1017 30.03 846 24.98 29.3 84.8 15 -0 32
15:15 1016 30 846 24.98 29.7 85.4 14 -0.3 31.4
15:20 1016 30 846 24.98 29.8 85.6 14 0.1 32.1
15:25 1017 30.03 846 24.98 29.9 85.8 14 -0 31.9
15:30 1017 30.03 846 24.98 30.1 86.1 14 0.4 32.7
15:35 1017 30.03 846 24.98 29.8 85.6 15 1 33.8
15:40 1017 30.03 846 24.98 29.1 84.3 15 -0 32
15:45 1017 30.03 846 24.98 28.7 83.7 17 1.3 34.3
15:50 1017 30.03 847 25.01 28.1 82.5 18 1.9 35.4
15:55 1018 30.06 847 25.01 27.6 81.6 18 1.5 34.6
16:00 1018 30.06 847 25.01 27.2 80.9 19 1.7 35.1
16:05 1018 30.06 847 25.01 26.4 79.5 21 2.4 36.3
16:10 1018 30.06 847 25.01 25.8 78.4 20 1.6 34.8
16:15 1017 30.03 847 25.01 25.6 78 20 1.4 34.5
16:20 1017 30.03 846 24.98 25.7 78.2 20 1.5 34.7
16:25 1017 30.03 846 24.98 25.5 77.8 21 1.9 35.4
16:30 1017 30.03 846 24.98 25.3 77.5 22 2.3 36.1
16:35 1017 30.03 846 24.98 24.9 76.8 23 2.5 36.4
16:40 1017 30.03 847 25.01 24.5 76.2 23 2.2 36
16:45 1017 30.03 847 25.01 24.4 75.9 22 1.8 35.2
16:50 1017 30.03 847 25.01 24.5 76 23 1.9 35.5
16:55 1017 30.03 847 25.01 24.7 76.5 23 2.2 35.9
17:00 1017 30.03 847 25.01 25.1 77.1 22 2.3 36.2
17:05 1017 30.03 847 25.01 25.3 77.5 22 2.1 35.7
17:10 1017 30.03 847 25.01 25.3 77.5 22 2.3 36.2
17:15 1017 30.03 846 24.98 25.3 77.5 22 2.4 36.3
17:20 1017 30.03 847 25.01 25.1 77.1 22 2.4 36.3
17:25 1018 30.06 847 25.01 25.1 77.1 22 2.2 35.9
17:30 1018 30.06 847 25.01 25 77 22 2.3 36.1
17:35 1018 30.06 847 25.01 25 77 23 2.6 36.7
17:40 1017 30.03 847 25.01 24.5 76.1 29 5.7 42.3
17:45 1018 30.06 847 25.01 23.5 74.3 30 5.3 41.6
17:50 1018 30.06 847 25.01 23.1 73.6 30 4.9 40.8
17:55 1018 30.06 847 25.01 23 73.4 31 5.2 41.3
18:00 1018 30.06 847 25.01 22.7 72.9 32 5.3 41.5
18:05 1018 30.06 847 25.01 22.6 72.7 32 5.2 41.3
18:10 1018 30.06 847 25.01 22.6 72.6 34 6.3 43.4
18:15 1017 30.03 846 24.98 22.7 72.8 31 4.9 40.9
18:20 1017 30.03 847 25.01 22.9 73.2 32 5.4 41.7
18:25 1018 30.06 847 25.01 23.3 73.9 31 5.6 42
18:30 1017 30.03 847 25.01 23.3 74 31 5.6 42
18:35 1017 30.03 846 24.98 23.2 73.7 33 6.2 43.2
18:40 1017 30.03 846 24.98 23.1 73.5 33 6.1 43
18:45 1017 30.03 846 24.98 22.9 73.2 34 6.3 43.3
18:50 1017 30.03 846 24.98 22.7 72.8 34 6.1 42.9
18:55 1017 30.03 846 24.98 22.6 72.7 36 7 44.7
19:00 1017 30.03 846 24.98 22.5 72.5 35 6.5 43.7
19:05 1017 30.03 846 24.98 22.6 72.7 32 5.4 41.6
19:10 1017 30.03 846 24.98 22.3 72.2 36 6.7 44
19:15 1017 30.03 846 24.98 22.1 71.9 31 4.5 40.2
19:20 1017 30.03 846 24.98 22 71.6 33 5.2 41.3
19:25 1017 30.03 846 24.98 21.8 71.3 37 6.7 44.1
19:30 1017 30.03 846 24.98 21.8 71.2 41 8.1 46.6
19:35 1017 30.03 846 24.98 21.8 71.2 37 6.7 44
19:40 1017 30.03 846 24.98 21.7 71.1 35 5.9 42.7
19:45 1017 30.03 846 24.98 21.7 71 36 6.3 43.3
19:50 1017 30.03 847 25.01 21.5 70.7 38 6.6 43.9
19:55 1017 30.03 847 25.01 21.4 70.4 38 6.7 44
20:00 1018 30.06 847 25.01 20.9 69.7 33 4.4 39.8
20:05 1018 30.06 847 25.01 20.9 69.7 32 3.7 38.6
20:10 1018 30.06 847 25.01 20.8 69.5 34 4.5 40
20:15 1018 30.06 847 25.01 20.6 69.1 37 5.6 42.1
20:20 1018 30.06 847 25.01 20.4 68.8 39 6.3 43.4
20:25 1018 30.06 847 25.01 20.6 69 33 4 39.1
20:30 1018 30.06 847 25.01 20.6 69 39 6.3 43.4
20:35 1018 30.06 847 25.01 19.8 67.7 44 7.5 45.5
20:40 1018 30.06 847 25.01 19.3 66.7 39 5.3 41.5
20:45 1018 30.06 847 25.01 19.1 66.4 38 4.5 40.2
20:50 1018 30.06 847 25.01 19.1 66.4 37 4.2 39.5
20:55 1018 30.06 847 25.01 19.1 66.5 37 4.3 39.7
21:00 1018 30.06 847 25.01 19.1 66.4 36 3.9 39
21:05 1018 30.06 848 25.04 19.1 66.4 36 3.7 38.7
21:10 1018 30.06 848 25.04 19.1 66.4 38 4.5 40.1
21:15 1018 30.06 848 25.04 18.8 65.8 39 4.8 40.7
21:20 1018 30.06 848 25.04 18.3 65 43 5.6 42.1
21:25 1018 30.06 848 25.04 17.9 64.3 43 5.4 41.8
21:30 1018 30.06 848 25.04 17.5 63.5 44 5.2 41.4
21:35 1018 30.06 848 25.04 17.4 63.3 44 5.2 41.3
21:40 1018 30.06 848 25.04 17.3 63.1 44 4.9 40.9
21:45 1018 30.06 848 25.04 17.4 63.2 44 5 40.9
21:50 1018 30.06 848 25.04 17.5 63.5 47 6.2 43.2
21:55 1018 30.06 848 25.04 17.4 63.3 44 5.1 41.1
22:00 1018 30.06 848 25.04 17.1 62.8 43 4.6 40.3
22:05 1018 30.06 848 25.04 16.9 62.4 43 4.5 40.1
22:10 1018 30.06 848 25.04 16.9 62.3 48 5.8 42.5
22:15 1018 30.06 848 25.04 17.1 62.8 41 3.8 38.9
22:20 1018 30.06 848 25.04 17.3 63.1 40 3.7 38.6
22:25 1018 30.06 848 25.04 17.3 63.2 40 3.7 38.7
22:30 1019 30.09 848 25.04 17.4 63.3 40 3.8 38.8
22:35 1019 30.09 848 25.04 17.3 63.2 39 3.3 37.9
22:40 1019 30.09 848 25.04 17.3 63.1 39 3.3 38
22:45 1019 30.09 848 25.04 17.4 63.4 39 3.3 37.9
22:50 1019 30.09 848 25.04 17.2 62.9 42 4.2 39.5
22:55 1019 30.09 848 25.04 17.2 62.9 44 5 41
23:00 1019 30.09 848 25.04 17 62.6 52 7.3 45.1
23:05 1019 30.09 848 25.04 16.6 61.8 53 6.9 44.5
23:10 1019 30.09 848 25.04 16.3 61.3 58 8 46.3
23:15 1019 30.09 848 25.04 15.6 60 60 8 46.4
23:20 1019 30.09 849 25.07 15.2 59.3 55 6.2 43.1
23:25 1019 30.09 849 25.07 15.2 59.4 58 7.1 44.7
23:30 1019 30.09 849 25.07 15.3 59.5 56 6.7 44
23:35 1020 30.12 849 25.07 15.3 59.6 55 6.5 43.8
23:40 1020 30.12 849 25.07 15.3 59.6 65 8.8 47.8
23:45 1019 30.09 849 25.07 14.5 58.1 68 8.6 47.5
23:50 1019 30.09 848 25.04 14.2 57.6 68 8.5 47.3
23:55 1019 30.09 848 25.04 14.2 57.5 69 8.6 47.5
24:00 1019 30.09 849 25.07 14.5 58 67 8.4 47.1